Time;durP1;ratioP1;P1;durP2;ratioP2;P2;SDS_P1;SDS_P2;PMS_P1;PMS_P2;Temp;Humidity;BMP_temperature;BMP_pressure;BME280_temperature;BME280_humidity;BME280_pressure;Samples;Min_cycle;Max_cycle;Signal;HPM_P1;HPM_P2
2021/01/07 00:03:47;;;;;;;0.80;0.40;;;10.20;57.90;;;;;;20778220;28;20416;-68
2021/01/07 00:13:47;;;;;;;0.82;0.63;;;10.20;57.90;;;;;;20759904;28;20108;-69
2021/01/07 00:23:48;;;;;;;1.50;1.25;;;10.20;57.90;;;;;;20734542;28;20120;-68
2021/01/07 00:33:48;;;;;;;0.20;0.20;;;10.20;57.90;;;;;;20748020;28;20046;-68
2021/01/07 00:43:49;;;;;;;0.45;0.40;;;10.20;58.00;;;;;;20737409;28;20057;-68
2021/01/07 00:53:50;;;;;;;0.38;0.38;;;10.20;57.90;;;;;;20749361;28;20037;-68
2021/01/07 01:03:53;;;;;;;0.50;0.50;;;10.20;57.90;;;;;;20747933;28;20029;-68
2021/01/07 01:13:54;;;;;;;1.15;0.85;;;10.20;58.00;;;;;;20725769;28;20049;-67
2021/01/07 01:23:55;;;;;;;2.00;1.10;;;10.20;57.90;;;;;;20736382;28;20041;-68
2021/01/07 01:33:56;;;;;;;0.82;0.60;;;10.20;58.00;;;;;;20741510;28;20046;-69
2021/01/07 01:43:56;;;;;;;0.70;0.52;;;10.20;58.00;;;;;;20728971;28;20067;-68
2021/01/07 01:53:57;;;;;;;1.00;0.50;;;10.20;57.90;;;;;;20747992;28;20030;-68
2021/01/07 02:03:57;;;;;;;1.05;0.68;;;10.10;57.90;;;;;;20761793;28;20078;-68
2021/01/07 02:13:59;;;;;;;0.77;0.70;;;10.10;57.90;;;;;;20733280;28;20128;-68
2021/01/07 02:23:59;;;;;;;2.13;0.93;;;10.10;57.90;;;;;;20713673;28;20044;-69
2021/01/07 02:34:00;;;;;;;1.42;0.50;;;10.10;57.90;;;;;;20725462;28;20540;-68
2021/01/07 02:44:01;;;;;;;0.93;0.77;;;10.10;58.00;;;;;;20753775;28;20025;-68
2021/01/07 02:54:02;;;;;;;0.90;0.57;;;10.10;57.90;;;;;;20761610;28;20173;-68
2021/01/07 03:04:03;;;;;;;0.40;0.40;;;10.10;57.90;;;;;;20753723;28;20280;-69
2021/01/07 03:14:03;;;;;;;0.75;0.47;;;10.10;58.00;;;;;;20756693;28;20400;-68
2021/01/07 03:24:04;;;;;;;0.95;0.50;;;10.10;58.00;;;;;;20738161;28;20140;-68
2021/01/07 03:34:05;;;;;;;0.88;0.47;;;10.10;58.00;;;;;;20756460;28;20041;-69
2021/01/07 03:44:06;;;;;;;0.95;0.63;;;10.10;58.00;;;;;;20727165;28;20480;-69
2021/01/07 03:54:06;;;;;;;0.25;0.20;;;10.10;58.10;;;;;;20736029;28;20119;-68
2021/01/07 04:04:07;;;;;;;1.00;0.65;;;10.10;58.10;;;;;;20769474;28;20041;-68
2021/01/07 04:14:07;;;;;;;0.57;0.55;;;10.00;58.10;;;;;;20734039;28;20122;-67
2021/01/07 04:24:08;;;;;;;0.68;0.40;;;10.10;58.10;;;;;;20733958;28;20038;-69
2021/01/07 04:34:09;;;;;;;0.13;0.13;;;10.00;58.00;;;;;;20734882;28;20480;-70
2021/01/07 04:44:09;;;;;;;0.73;0.38;;;10.00;58.10;;;;;;20758780;28;20296;-68
2021/01/07 04:54:10;;;;;;;0.30;0.30;;;10.00;58.10;;;;;;20744150;28;20077;-70
2021/01/07 05:04:10;;;;;;;0.47;0.17;;;10.00;58.10;;;;;;20745081;28;20034;-70
2021/01/07 05:14:11;;;;;;;1.02;0.45;;;10.00;58.30;;;;;;20732404;28;20045;-69
2021/01/07 05:24:12;;;;;;;0.45;0.30;;;10.20;58.70;;;;;;20735144;28;20119;-69
2021/01/07 05:34:13;;;;;;;0.30;0.30;;;10.50;58.60;;;;;;20735410;28;20500;-70
2021/01/07 05:44:13;;;;;;;0.22;0.20;;;10.90;57.90;;;;;;20723379;28;20112;-69
2021/01/07 05:54:14;;;;;;;0.30;0.20;;;11.10;56.80;;;;;;20736105;28;20064;-69
2021/01/07 06:04:15;;;;;;;0.32;0.22;;;11.30;56.20;;;;;;20749128;28;20371;-69
2021/01/07 06:14:15;;;;;;;0.43;0.20;;;11.40;55.70;;;;;;20736081;28;20044;-69
2021/01/07 06:24:16;;;;;;;0.20;0.13;;;11.40;54.80;;;;;;20754495;28;20103;-71
2021/01/07 06:34:24;;;;;;;0.40;0.22;;;11.20;54.60;;;;;;20744968;28;20136;-70
2021/01/07 06:44:25;;;;;;;0.82;0.30;;;11.00;54.80;;;;;;20744179;28;20380;-69
2021/01/07 06:54:45;;;;;;;0.17;0.17;;;10.80;55.10;;;;;;20760104;28;20121;-70
2021/01/07 07:04:46;;;;;;;1.55;0.88;;;10.70;55.50;;;;;;20736632;28;20048;-70
2021/01/07 07:14:51;;;;;;;0.30;0.30;;;10.60;55.70;;;;;;20720759;28;20064;-71
2021/01/07 07:24:53;;;;;;;0.55;0.40;;;10.60;56.10;;;;;;20749659;28;20038;-70
2021/01/07 07:34:54;;;;;;;0.40;0.40;;;10.50;56.20;;;;;;20752116;28;20029;-70
2021/01/07 07:44:58;;;;;;;0.75;0.35;;;10.50;56.40;;;;;;20710378;28;20037;-70
2021/01/07 07:55:03;;;;;;;1.55;0.60;;;10.50;56.50;;;;;;20755040;28;20041;-69
2021/01/07 08:05:04;;;;;;;0.68;0.40;;;10.50;56.70;;;;;;20760748;28;20034;-70
2021/01/07 08:15:05;;;;;;;1.58;0.65;;;10.40;56.70;;;;;;20724051;28;20540;-68
2021/01/07 08:25:06;;;;;;;0.80;0.50;;;10.50;56.80;;;;;;20758556;28;20030;-69
2021/01/07 08:35:08;;;;;;;0.20;0.20;;;10.40;56.80;;;;;;20735042;28;20039;-68
2021/01/07 08:45:09;;;;;;;1.83;0.32;;;10.50;56.90;;;;;;20725409;28;20038;-69
2021/01/07 08:55:10;;;;;;;0.17;0.17;;;10.50;56.90;;;;;;20724027;28;20388;-70
2021/01/07 09:05:11;;;;;;;0.28;0.28;;;10.50;57.00;;;;;;20723526;28;20045;-70
2021/01/07 09:15:23;;;;;;;1.38;0.55;;;10.40;56.90;;;;;;20717253;28;20052;-69
2021/01/07 09:25:24;;;;;;;0.65;0.43;;;10.40;57.00;;;;;;21157158;22;20124;-71
2021/01/07 09:35:25;;;;;;;0.75;0.68;;;10.50;57.10;;;;;;20709537;28;20033;-70
2021/01/07 09:45:26;;;;;;;0.95;0.60;;;10.40;57.10;;;;;;20710246;28;20052;-72
2021/01/07 09:55:26;;;;;;;0.55;0.50;;;10.40;57.10;;;;;;20739143;28;20096;-70
2021/01/07 10:05:27;;;;;;;0.43;0.43;;;10.40;57.10;;;;;;20722998;28;20116;-70
2021/01/07 10:15:27;;;;;;;0.63;0.47;;;10.40;57.00;;;;;;20748803;28;20108;-70
2021/01/07 10:25:29;;;;;;;1.23;0.50;;;10.40;57.20;;;;;;20724498;28;20076;-71
2021/01/07 10:35:29;;;;;;;0.95;0.65;;;10.40;57.20;;;;;;20738898;28;20034;-70
2021/01/07 10:45:30;;;;;;;0.93;0.68;;;10.40;57.30;;;;;;20739870;28;20091;-70
2021/01/07 10:55:31;;;;;;;0.63;0.52;;;10.40;57.40;;;;;;20735781;28;20045;-70
2021/01/07 11:05:37;;;;;;;0.95;0.88;;;10.40;57.40;;;;;;20732463;28;20179;-69
2021/01/07 11:15:40;;;;;;;1.97;0.70;;;10.40;57.40;;;;;;20731553;28;20038;-68
2021/01/07 11:25:41;;;;;;;0.82;0.43;;;10.40;57.50;;;;;;20738437;28;20297;-72
2021/01/07 11:35:45;;;;;;;1.88;1.27;;;10.30;58.00;;;;;;20762404;28;20495;-71
2021/01/07 11:45:49;;;;;;;0.98;0.45;;;10.30;57.50;;;;;;20744158;28;20039;-70
2021/01/07 11:55:50;;;;;;;2.33;0.80;;;10.30;57.50;;;;;;20719608;28;20404;-71
2021/01/07 12:05:50;;;;;;;0.93;0.60;;;10.40;57.60;;;;;;20770334;28;20119;-70
2021/01/07 12:15:51;;;;;;;1.45;0.70;;;10.30;57.60;;;;;;20745771;28;20684;-70
2021/01/07 12:25:52;;;;;;;1.90;1.05;;;10.30;57.70;;;;;;20759066;28;20034;-73
2021/01/07 12:36:03;;;;;;;0.60;0.30;;;10.30;57.70;;;;;;20764861;28;20041;-71
2021/01/07 12:46:04;;;;;;;0.73;0.57;;;10.30;57.90;;;;;;20751133;28;20036;-69
2021/01/07 12:56:05;;;;;;;2.42;0.63;;;10.30;57.90;;;;;;20737369;28;20420;-68
2021/01/07 13:06:06;;;;;;;0.40;0.40;;;10.30;57.80;;;;;;20735999;28;20064;-69
2021/01/07 13:16:07;;;;;;;1.38;0.95;;;10.30;57.90;;;;;;20776735;28;20498;-69
2021/01/07 13:26:07;;;;;;;0.77;0.60;;;10.30;58.00;;;;;;20774336;28;20029;-70
2021/01/07 13:36:08;;;;;;;1.08;0.77;;;10.20;58.00;;;;;;20731886;28;20069;-71
2021/01/07 13:46:15;;;;;;;2.08;0.82;;;10.20;58.00;;;;;;20743477;28;20384;-73
2021/01/07 13:56:16;;;;;;;;;;;10.20;58.10;;;;;;20734546;28;20496;-70
2021/01/07 14:06:17;;;;;;;1.00;0.75;;;10.20;58.10;;;;;;20735724;28;19913;-69
2021/01/07 14:16:20;;;;;;;1.02;0.65;;;10.20;58.20;;;;;;20699768;28;20468;-70
2021/01/07 14:26:21;;;;;;;1.77;0.93;;;10.20;58.20;;;;;;20744121;28;20119;-73
2021/01/07 14:36:21;;;;;;;0.95;0.40;;;10.20;58.30;;;;;;20758200;28;20488;-69
2021/01/07 14:46:24;;;;;;;2.03;0.80;;;10.20;58.40;;;;;;20758406;28;20037;-71
2021/01/07 14:56:31;;;;;;;0.77;0.38;;;10.10;58.30;;;;;;20753601;28;20033;-70
2021/01/07 15:06:38;;;;;;;0.73;0.57;;;10.10;58.30;;;;;;20737248;28;20041;-71
2021/01/07 15:16:44;;;;;;;1.25;0.85;;;10.20;58.80;;;;;;20741141;28;20136;-70
2021/01/07 15:26:59;;;;;;;1.50;0.60;;;10.40;59.10;;;;;;20761206;28;20611;-72
2021/01/07 15:37:03;;;;;;;0.77;0.60;;;10.70;58.80;;;;;;20764737;28;20454;-78
2021/01/07 15:47:12;;;;;;;1.38;0.60;;;11.00;58.00;;;;;;20751042;28;20034;-68
2021/01/07 15:57:12;;;;;;;1.25;0.80;;;11.30;57.00;;;;;;20752936;28;20049;-70
2021/01/07 16:07:13;;;;;;;0.88;0.55;;;11.40;56.40;;;;;;20766338;28;20030;-70
2021/01/07 16:17:13;;;;;;;2.60;0.77;;;11.50;55.90;;;;;;20750330;28;20476;-68
2021/01/07 16:27:22;;;;;;;2.40;0.63;;;11.50;55.70;;;;;;20738378;28;20303;-70
2021/01/07 16:37:22;;;;;;;0.90;0.80;;;11.50;55.50;;;;;;20747061;28;20038;-68
2021/01/07 16:47:23;;;;;;;0.63;0.50;;;11.60;55.40;;;;;;20727886;28;20132;-68
2021/01/07 16:57:24;;;;;;;0.68;0.30;;;11.60;55.00;;;;;;20755986;28;20141;-66
2021/01/07 17:07:25;;;;;;;0.80;0.60;;;11.40;54.80;;;;;;20752501;28;20525;-69
2021/01/07 17:17:25;;;;;;;1.07;0.50;;;11.20;55.10;;;;;;20730504;28;20041;-69
2021/01/07 17:27:26;;;;;;;3.35;0.85;;;11.00;55.40;;;;;;20726237;28;20301;-68
2021/01/07 17:37:26;;;;;;;1.48;0.80;;;10.90;55.70;;;;;;20728299;28;20038;-69
2021/01/07 17:47:27;;;;;;;0.93;0.57;;;10.90;56.20;;;;;;20708870;28;20065;-68
2021/01/07 17:57:27;;;;;;;0.80;0.30;;;10.80;56.50;;;;;;20750661;28;20058;-68
2021/01/07 18:07:28;;;;;;;0.65;0.60;;;10.70;56.70;;;;;;20732235;28;20061;-67
2021/01/07 18:17:29;;;;;;;2.58;1.05;;;10.70;56.90;;;;;;20738447;28;20772;-70
2021/01/07 18:27:29;;;;;;;3.08;1.05;;;10.70;57.00;;;;;;20729312;28;20502;-69
2021/01/07 18:37:30;;;;;;;0.93;0.60;;;10.60;57.10;;;;;;20751660;28;20384;-69
2021/01/07 18:47:30;;;;;;;0.80;0.32;;;10.70;57.20;;;;;;20735737;28;20113;-69
2021/01/07 18:57:31;;;;;;;0.90;0.52;;;10.60;57.30;;;;;;20740172;28;20044;-68
2021/01/07 19:07:34;;;;;;;1.75;1.15;;;10.60;57.30;;;;;;20732358;28;20113;-68
2021/01/07 19:17:36;;;;;;;4.10;0.90;;;10.60;57.40;;;;;;20735538;28;20115;-67
2021/01/07 19:27:36;;;;;;;1.55;0.80;;;10.60;57.40;;;;;;20755908;28;20482;-67
2021/01/07 19:37:37;;;;;;;1.63;0.73;;;10.60;57.50;;;;;;20743907;28;20117;-67
2021/01/07 19:47:38;;;;;;;2.20;0.73;;;10.50;57.40;;;;;;20753412;28;20025;-67
2021/01/07 19:57:39;;;;;;;2.15;1.10;;;10.50;57.50;;;;;;20730198;28;20124;-68
2021/01/07 20:07:46;;;;;;;1.77;0.90;;;10.50;57.60;;;;;;20747742;28;20448;-67
2021/01/07 20:17:47;;;;;;;2.40;0.75;;;10.50;57.60;;;;;;20741310;28;20037;-66
2021/01/07 20:27:48;;;;;;;1.42;0.77;;;10.50;57.70;;;;;;20730052;28;20087;-66
2021/01/07 20:37:49;;;;;;;2.13;1.25;;;10.50;57.70;;;;;;20719789;28;20030;-68
2021/01/07 20:47:50;;;;;;;1.73;0.85;;;10.50;57.70;;;;;;20746924;28;20057;-68
2021/01/07 20:57:51;;;;;;;1.33;0.90;;;10.50;57.70;;;;;;20740352;28;20064;-67
2021/01/07 21:07:52;;;;;;;1.80;1.13;;;10.50;57.80;;;;;;20731419;28;20041;-66
2021/01/07 21:17:53;;;;;;;0.90;0.85;;;10.50;57.70;;;;;;20723080;28;20045;-66
2021/01/07 21:27:53;;;;;;;1.55;0.90;;;10.50;57.80;;;;;;20724774;28;20129;-66
2021/01/07 21:37:54;;;;;;;4.82;2.13;;;10.50;57.90;;;;;;20747510;28;20061;-66
2021/01/07 21:47:55;;;;;;;1.45;0.90;;;10.50;57.90;;;;;;20726635;28;20030;-67
2021/01/07 21:57:55;;;;;;;1.58;0.85;;;10.50;57.90;;;;;;20717825;28;20067;-66
2021/01/07 22:07:56;;;;;;;2.67;1.13;;;10.50;57.90;;;;;;20729235;28;20037;-66
2021/01/07 22:17:56;;;;;;;2.47;1.05;;;10.40;57.90;;;;;;20733120;28;20299;-66
2021/01/07 22:27:57;;;;;;;2.60;1.10;;;10.50;58.00;;;;;;20740935;28;20092;-67
2021/01/07 22:37:57;;;;;;;0.77;0.52;;;10.40;58.00;;;;;;20742155;28;20042;-67
2021/01/07 22:47:58;;;;;;;1.05;0.60;;;10.40;58.00;;;;;;20743886;28;20030;-68
2021/01/07 22:57:58;;;;;;;2.80;0.73;;;10.40;58.10;;;;;;20755893;28;20109;-67
2021/01/07 23:07:59;;;;;;;1.90;0.90;;;10.40;58.00;;;;;;20738503;28;20052;-68
2021/01/07 23:18:00;;;;;;;2.63;1.43;;;10.40;58.00;;;;;;20728757;28;20124;-67
2021/01/07 23:28:01;;;;;;;1.85;1.50;;;10.40;58.10;;;;;;20735424;28;20337;-67
2021/01/07 23:38:01;;;;;;;1.20;0.80;;;10.40;58.20;;;;;;20753692;28;20038;-67
2021/01/07 23:48:02;;;;;;;2.30;1.13;;;10.40;58.20;;;;;;20728627;28;20452;-68
2021/01/07 23:58:03;;;;;;;1.23;1.00;;;10.30;58.10;;;;;;20755285;28;20040;-67
